CheckWX is a tool to help pilots better visualize weather data.  It is not intended as a substitute for an official pre-flight weather briefing.

03:36:00 UTC

PTYA METAR
Yap International Airport
Yap Island, Federated States of Micronesia
Current

46 mins ago

PTYA 260250Z 22010KT 12SM SCT016 BKN300 30/24 A2976 RMK SLP078 60000 8/101 T03030244 56010
Observed
Aug-26 @ 02:50 UTC
Wind
  • 220° at 10 KTS
Visibility
19,300 meters
Flight Rules
VFR
Cloud Levels
  • Scattered at 1,600' AGL
  • Broken at 30,000' AGL
Temperature
30°C / 86°F
Dewpoint
24°C / 75°F
Heat Index
35°C / 95°F
Humidity
70%
Altimeter
29.76" Hg
Pressure
1007.82 hPa
Previous

2 hours ago

PTYA 260150Z VRB06KT 12SM SCT016TCU BKN300 30/25 A2976 RMK SHRAE07 VCSH NE TCU NE SLP078 T02980250
Observed
Aug-26 @ 01:50 UTC
Wind
  • Variable at 6 KTS
Visibility
19,300 meters
Flight Rules
VFR
Cloud Levels
  • Scattered at 1,600' AGL
  • Broken at 30,000' AGL
Temperature
30°C / 86°F
Dewpoint
25°C / 77°F
Heat Index
36°C / 97°F
Humidity
75%
Altimeter
29.76" Hg
Pressure
1007.82 hPa
Previous

3 hours ago

PTYA 260050Z 25009KT 10SM -SHRA SCT016TCU BKN300 30/25 A2978 RMK SHRAB48 TCU OHD SLP084 T02990252
Observed
Aug-26 @ 00:50 UTC
Wind
  • 250° at 9 KTS
Visibility
16,100 meters
Flight Rules
VFR
Conditions
Light Rain
Cloud Levels
  • Scattered at 1,600' AGL
  • Broken at 30,000' AGL
Temperature
30°C / 86°F
Dewpoint
25°C / 77°F
Heat Index
36°C / 97°F
Humidity
75%
Altimeter
29.78" Hg
Pressure
1008.42 hPa